| time (UTC) | temp F | wind direction | speed MPH | gust MPH | rain 1hr in | rain 24hr in | rain mn in | humidity % | barometer mb |
| 20260509213153 | 53 | 52 | 15.0 | 27.0 | 0.00 | 0.00 | 0.00 | 86 | 1017.7 |
| 20260509211551 | 54 | 63 | 14.0 | 21.0 | 0.00 | 0.00 | 0.00 | 86 | 1017.9 |
| 20260509210053 | 54 | 58 | 13.0 | 21.0 | 0.00 | 0.00 | 0.00 | 86 | 1017.8 |
| 20260509204552 | 54 | 33 | 15.0 | 23.0 | 0.00 | 0.00 | 0.00 | 86 | 1017.7 |
| 20260509203044 | 54 | 44 | 13.0 | 25.0 | 0.00 | 0.00 | 0.00 | 86 | 1017.5 |
| 20260509201540 | 54 | 47 | 13.0 | 24.0 | 0.00 | 0.00 | 0.00 | 86 | 1017.4 |
| 20260509200052 | 54 | 25 | 12.0 | 22.0 | 0.00 | 0.00 | 0.00 | 86 | 1017.5 |
| 20260509194538 | 54 | 96 | 12.0 | 21.0 | 0.00 | 0.00 | 0.00 | 86 | 1017.5 |
| 20260509193034 | 54 | 58 | 13.0 | 23.0 | 0.00 | 0.00 | 0.00 | 86 | 1017.4 |
| 20260509191533 | 54 | 69 | 13.0 | 22.0 | 0.00 | 0.00 | 0.00 | 85 | 1017.4 |
| 20260509190034 | 54 | 65 | 16.0 | 24.0 | 0.00 | 0.00 | 0.00 | 85 | 1017.3 |
| 20260509184542 | 54 | 77 | 15.0 | 22.0 | 0.00 | 0.00 | 0.00 | 85 | 1017.2 |
| 20260509183029 | 55 | 51 | 13.0 | 23.0 | 0.00 | 0.00 | 0.00 | 85 | 1017.1 |
| 20260509181523 | 55 | 47 | 14.0 | 27.0 | 0.00 | 0.00 | 0.00 | 84 | 1017.0 |
| 20260509180021 | 55 | 51 | 14.0 | 23.0 | 0.00 | 0.00 | 0.00 | 84 | 1016.8 |
| 20260509174520 | 55 | 37 | 15.0 | 23.0 | 0.00 | 0.00 | 0.00 | 84 | 1016.7 |
| 20260509173019 | 55 | 34 | 15.0 | 23.0 | 0.00 | 0.00 | 0.00 | 83 | 1016.7 |
| 20260509171519 | 55 | 46 | 13.0 | 23.0 | 0.00 | 0.00 | 0.00 | 83 | 1016.9 |
| 20260509170017 | 56 | 79 | 14.0 | 21.0 | 0.00 | 0.00 | 0.00 | 83 | 1016.8 |
| 20260509164517 | 56 | 86 | 14.0 | 22.0 | 0.00 | 0.00 | 0.00 | 83 | 1016.6 |
| 20260509163017 | 56 | 54 | 14.0 | 23.0 | 0.00 | 0.00 | 0.00 | 83 | 1016.4 |
| 20260509161515 | 56 | 56 | 14.0 | 22.0 | 0.00 | 0.00 | 0.00 | 82 | 1016.3 |
| 20260509160016 | 56 | 67 | 14.0 | 23.0 | 0.00 | 0.00 | 0.00 | 82 | 1016.4 |
| 20260509154515 | 56 | 47 | 13.0 | 22.0 | 0.00 | 0.00 | 0.00 | 81 | 1016.4 |
| 20260509153028 | 57 | 30 | 13.0 | 24.0 | 0.00 | 0.00 | 0.00 | 82 | 1016.3 |
| 20260509151513 | 56 | 32 | 15.0 | 26.0 | 0.00 | 0.00 | 0.00 | 82 | 1016.2 |
| 20260509150015 | 56 | 42 | 13.0 | 23.0 | 0.00 | 0.00 | 0.00 | 82 | 1016.3 |
| 20260509144524 | 56 | 44 | 13.0 | 22.0 | 0.00 | 0.00 | 0.00 | 82 | 1016.3 |
| 20260509143010 | 56 | 49 | 13.0 | 20.0 | 0.00 | 0.00 | 0.00 | 82 | 1016.4 |
| 20260509141515 | 56 | 61 | 12.0 | 19.0 | 0.00 | 0.00 | 0.00 | 82 | 1016.5 |
| 20260509140011 | 56 | 37 | 12.0 | 18.0 | 0.00 | 0.00 | 0.00 | 81 | 1016.6 |
| 20260509134507 | 57 | 103 | 11.0 | 16.0 | 0.00 | 0.00 | 0.00 | 82 | 1016.7 |
| 20260509133013 | 56 | 65 | 9.0 | 17.0 | 0.00 | 0.00 | 0.00 | 82 | 1016.6 |
| 20260509131508 | 56 | 37 | 8.0 | 13.0 | 0.00 | 0.00 | 0.00 | 81 | 1016.7 |
| 20260509130005 | 57 | 62 | 6.0 | 13.0 | 0.00 | 0.00 | 0.00 | 80 | 1016.8 |
| 20260509124505 | 57 | 82 | 7.0 | 13.0 | 0.00 | 0.00 | 0.00 | 80 | 1016.8 |
| 20260509123002 | 57 | 62 | 6.0 | 12.0 | 0.00 | 0.00 | 0.00 | 79 | 1016.7 |
| 20260509121614 | 58 | 72 | 8.0 | 14.0 | 0.00 | 0.00 | 0.00 | 78 | 1016.6 |
| 20260509120115 | 59 | 47 | 10.0 | 17.0 | 0.00 | 0.00 | 0.00 | 78 | 1016.6 |
| 20260509114603 | 59 | 70 | 9.0 | 18.0 | 0.00 | 0.00 | 0.00 | 79 | 1016.6 |
| 20260509113056 | 58 | 91 | 9.0 | 18.0 | 0.00 | 0.00 | 0.00 | 79 | 1016.5 |
| 20260509111604 | 58 | 74 | 12.0 | 22.0 | 0.00 | 0.00 | 0.00 | 79 | 1016.3 |
| 20260509110053 | 58 | 77 | 9.0 | 19.0 | 0.00 | 0.00 | 0.00 | 80 | 1016.4 |
| 20260509104551 | 57 | 58 | 13.0 | 19.0 | 0.00 | 0.00 | 0.00 | 81 | 1016.4 |
| 20260509103150 | 56 | 77 | 14.0 | 21.0 | 0.00 | 0.00 | 0.00 | 81 | 1016.3 |
| 20260509101617 | 56 | 84 | 14.0 | 22.0 | 0.00 | 0.00 | 0.00 | 81 | 1016.2 |
| 20260509100048 | 56 | 52 | 12.0 | 18.0 | 0.00 | 0.00 | 0.00 | 81 | 1016.1 |
| 20260509094547 | 56 | 82 | 12.0 | 19.0 | 0.00 | 0.00 | 0.00 | 80 | 1016.1 |
| 20260509093046 | 57 | 47 | 11.0 | 21.0 | 0.00 | 0.00 | 0.00 | 79 | 1015.9 |
| 20260509091547 | 57 | 69 | 12.0 | 24.0 | 0.00 | 0.00 | 0.00 | 79 | 1015.8 |
| 20260509090053 | 58 | 65 | 12.0 | 24.0 | 0.00 | 0.00 | 0.00 | 80 | 1015.9 |
| 20260509084546 | 57 | 105 | 13.0 | 22.0 | 0.00 | 0.00 | 0.00 | 81 | 1015.9 |
| 20260509083041 | 57 | 56 | 12.0 | 19.0 | 0.00 | 0.00 | 0.00 | 82 | 1016.3 |
| 20260509081542 | 57 | 65 | 10.0 | 18.0 | 0.00 | 0.00 | 0.00 | 82 | 1015.7 |
| 20260509080038 | 57 | 69 | 10.0 | 17.0 | 0.00 | 0.00 | 0.00 | 81 | 1015.8 |
| 20260509074545 | 57 | 61 | 9.0 | 16.0 | 0.00 | 0.00 | 0.00 | 81 | 1015.5 |
| 20260509073043 | 57 | 74 | 9.0 | 18.0 | 0.00 | 0.00 | 0.00 | 81 | 1015.5 |
| 20260509071542 | 57 | 72 | 11.0 | 22.0 | 0.00 | 0.00 | 0.00 | 82 | 1015.3 |
| 20260509070032 | 56 | 98 | 10.0 | 22.0 | 0.00 | 0.00 | 0.00 | 82 | 1015.3 |
| 20260509064534 | 55 | 82 | 10.0 | 19.0 | 0.00 | 0.00 | 0.00 | 82 | 1015.2 |
| 20260509063029 | 55 | 96 | 13.0 | 22.0 | 0.00 | 0.00 | 0.00 | 82 | 1015.2 |
| 20260509061525 | 55 | 69 | 12.0 | 23.0 | 0.00 | 0.00 | 0.00 | 81 | 1015.1 |
| 20260509060022 | 55 | 59 | 12.0 | 19.0 | 0.00 | 0.00 | 0.00 | 81 | 1015.1 |
| 20260509054517 | 55 | 58 | 11.0 | 22.0 | 0.00 | 0.00 | 0.00 | 80 | 1015.1 |
| 20260509053015 | 55 | 77 | 12.0 | 22.0 | 0.00 | 0.00 | 0.00 | 80 | 1015.1 |
| 20260509051512 | 55 | 96 | 12.0 | 21.0 | 0.00 | 0.00 | 0.00 | 80 | 1014.8 |
| 20260509050012 | 55 | 105 | 12.0 | 22.0 | 0.00 | 0.00 | 0.00 | 80 | 1014.8 |
| 20260509044511 | 55 | 77 | 12.0 | 24.0 | 0.00 | 0.00 | 0.00 | 80 | 1014.6 |
| 20260509043010 | 55 | 94 | 13.0 | 21.0 | 0.00 | 0.00 | 0.00 | 80 | 1014.8 |
| 20260509041509 | 55 | 49 | 11.0 | 18.0 | 0.00 | 0.00 | 0.00 | 80 | 1014.5 |
| 20260509040009 | 55 | 69 | 13.0 | 21.0 | 0.00 | 0.00 | 0.00 | 79 | 1014.5 |
| 20260509034507 | 55 | 56 | 12.0 | 21.0 | 0.00 | 0.00 | 0.00 | 79 | 1014.5 |
| 20260509033005 | 55 | 49 | 13.0 | 21.0 | 0.00 | 0.00 | 0.00 | 79 | 1014.5 |
| 20260509031502 | 55 | 72 | 11.0 | 21.0 | 0.00 | 0.00 | 0.00 | 79 | 1014.8 |
| 20260509024600 | 55 | 51 | 12.0 | 21.0 | 0.00 | 0.00 | 0.00 | 80 | 1014.9 |
| 20260509023110 | 55 | 62 | 8.0 | 15.0 | 0.00 | 0.00 | 0.00 | 80 | 1015.2 |
| 20260509021556 | 55 | 101 | 10.0 | 20.0 | 0.00 | 0.00 | 0.00 | 80 | 1015.1 |
| 20260509020059 | 54 | 59 | 12.0 | 19.0 | 0.00 | 0.00 | 0.00 | 81 | 1015.2 |
| 20260509014553 | 54 | 79 | 12.0 | 17.0 | 0.00 | 0.00 | 0.00 | 82 | 1015.3 |
| 20260509013055 | 54 | 70 | 11.0 | 16.0 | 0.00 | 0.00 | 0.00 | 82 | 1015.4 |
| 20260509011556 | 54 | 114 | 11.0 | 17.0 | 0.00 | 0.00 | 0.00 | 82 | 1015.4 |
| 20260509010052 | 54 | 56 | 10.0 | 16.0 | 0.00 | 0.00 | 0.00 | 81 | 1015.5 |
| 20260509004546 | 54 | 102 | 12.0 | 22.0 | 0.00 | 0.00 | 0.00 | 81 | 1015.5 |
| 20260509003044 | 54 | 58 | 12.0 | 20.0 | 0.00 | 0.00 | 0.00 | 80 | 1015.5 |
| 20260509001542 | 55 | 56 | 12.0 | 20.0 | 0.00 | 0.00 | 0.00 | 80 | 1015.6 |
| 20260509000040 | 55 | 75 | 11.0 | 18.0 | 0.00 | 0.00 | 0.00 | 80 | 1015.8 |
| 20260508234540 | 55 | 63 | 12.0 | 17.0 | 0.00 | 0.00 | 0.00 | 80 | 1015.8 |
| 20260508233038 | 54 | 79 | 12.0 | 18.0 | 0.00 | 0.00 | 0.00 | 80 | 1015.8 |
| 20260508231533 | 54 | 77 | 10.0 | 17.0 | 0.00 | 0.00 | 0.00 | 80 | 1015.9 |
| 20260508230040 | 54 | 77 | 11.0 | 17.0 | 0.00 | 0.00 | 0.00 | 80 | 1016.0 |
| 20260508224529 | 54 | 67 | 11.0 | 17.0 | 0.00 | 0.00 | 0.00 | 79 | 1016.1 |
| 20260508223031 | 55 | 77 | 11.0 | 17.0 | 0.00 | 0.00 | 0.00 | 79 | 1015.9 |
| 20260508221528 | 54 | 61 | 11.0 | 18.0 | 0.00 | 0.00 | 0.00 | 79 | 1016.0 |
| 20260508220029 | 54 | 60 | 9.0 | 16.0 | 0.00 | 0.00 | 0.00 | 80 | 1016.1 |
| 20260508214530 | 54 | 72 | 11.0 | 17.0 | 0.00 | 0.00 | 0.00 | 81 | 1016.2 |